Time;durP1;ratioP1;P1;durP2;ratioP2;P2;SDS_P1;SDS_P2;PMS_P1;PMS_P2;Temp;Humidity;BMP_temperature;BMP_pressure;BME280_temperature;BME280_humidity;BME280_pressure;Samples;Min_cycle;Max_cycle;Signal;HPM_P1;HPM_P2
2023/02/03 00:00:55;;;;;;;10.70;4.07;;;;;;;8.42;100.00;102505.53;10415209;28;20116;-66
2023/02/03 00:05:56;;;;;;;16.33;3.97;;;;;;;8.44;100.00;102522.44;10415791;28;20083;-67
2023/02/03 00:10:57;;;;;;;13.57;4.60;;;;;;;8.40;100.00;102517.50;10414529;28;20040;-67
2023/02/03 00:15:57;;;;;;;6.70;3.65;;;;;;;8.16;100.00;102500.69;10414740;28;20053;-67
2023/02/03 00:20:57;;;;;;;6.78;3.72;;;;;;;8.07;100.00;102509.66;10414244;28;20073;-66
2023/02/03 00:26:08;;;;;;;12.52;3.53;;;;;;;8.24;100.00;102515.34;10414664;28;20057;-67
2023/02/03 00:31:16;;;;;;;11.80;4.00;;;;;;;8.40;100.00;102520.19;10414686;28;20041;-66
2023/02/03 00:36:16;;;;;;;6.45;3.60;;;;;;;8.47;100.00;102527.56;10415199;28;20045;-66
2023/02/03 00:41:17;;;;;;;13.80;3.45;;;;;;;8.49;100.00;102530.13;10416458;28;20033;-67
2023/02/03 00:46:18;;;;;;;9.05;3.88;;;;;;;8.53;100.00;102521.59;10421839;28;20034;-66
2023/02/03 00:51:18;;;;;;;10.43;3.90;;;;;;;8.57;100.00;102517.59;10421646;28;20042;-67
2023/02/03 00:56:18;;;;;;;9.13;4.03;;;;;;;8.57;100.00;102532.94;10422041;28;20485;-67
2023/02/03 01:01:19;;;;;;;12.75;4.40;;;;;;;8.64;100.00;102527.81;10422262;28;20033;-67
2023/02/03 01:06:19;;;;;;;8.85;2.55;;;;;;;8.64;100.00;102517.03;10422247;28;20034;-66
2023/02/03 01:11:25;;;;;;;19.30;3.58;;;;;;;8.70;100.00;102519.13;10419710;28;20041;-67
2023/02/03 01:16:26;;;;;;;7.85;4.47;;;;;;;8.69;100.00;102509.34;10421289;28;20036;-67
2023/02/03 01:21:27;;;;;;;15.35;3.72;;;;;;;8.78;100.00;102524.69;10419705;28;20132;-67
2023/02/03 01:26:27;;;;;;;9.10;2.25;;;;;;;8.84;100.00;102532.19;10420451;28;20077;-67
2023/02/03 01:31:35;;;;;;;7.55;2.60;;;;;;;8.90;100.00;102488.38;10452541;28;20119;-67
2023/02/03 01:36:36;;;;;;;3.45;2.03;;;;;;;8.92;100.00;102461.22;10422742;28;20037;-67
2023/02/03 01:41:37;;;;;;;4.43;2.17;;;;;;;8.99;100.00;102476.66;10419663;28;20496;-67
2023/02/03 01:46:43;;;;;;;6.38;3.15;;;;;;;9.07;100.00;102487.59;10419513;28;20377;-66
2023/02/03 01:51:44;;;;;;;10.85;2.75;;;;;;;9.12;100.00;102494.41;10418678;28;20029;-66
2023/02/03 01:56:47;;;;;;;5.10;2.50;;;;;;;9.11;100.00;102479.19;10434965;28;20029;-67
2023/02/03 02:01:47;;;;;;;6.30;2.78;;;;;;;9.19;100.00;102471.19;10450636;28;20029;-66
2023/02/03 02:06:50;;;;;;;4.15;1.85;;;;;;;9.17;100.00;102475.91;10434661;28;20044;-67
2023/02/03 02:11:50;;;;;;;5.72;1.95;;;;;;;9.19;100.00;102484.69;10433541;28;20061;-66
2023/02/03 02:17:00;;;;;;;7.95;3.00;;;;;;;9.20;100.00;102467.50;10420092;28;20087;-67
2023/02/03 02:22:21;;;;;;;4.88;2.83;;;;;;;9.17;100.00;102451.56;10416948;28;20049;-67
2023/02/03 02:27:40;;;;;;;15.25;3.25;;;;;;;9.11;100.00;102455.72;10417635;28;20053;-66
2023/02/03 02:32:52;;;;;;;14.27;2.80;;;;;;;9.14;100.00;102459.97;10418802;28;20479;-66
2023/02/03 02:38:00;;;;;;;7.57;3.20;;;;;;;9.12;100.00;102457.41;10418675;28;20101;-66
2023/02/03 02:43:24;;;;;;;2.78;2.35;;;;;;;9.16;100.00;102477.75;10450123;28;20103;-66
2023/02/03 02:48:34;;;;;;;3.88;2.17;;;;;;;9.17;100.00;102468.63;10450165;28;20065;-66
2023/02/03 02:53:37;;;;;;;4.55;2.58;;;;;;;9.18;100.00;102455.97;10417930;28;20040;-67
2023/02/03 02:58:38;;;;;;;5.75;2.33;;;;;;;9.18;100.00;102467.63;10432637;28;20108;-67
2023/02/03 03:03:41;;;;;;;2.25;1.63;;;;;;;9.20;100.00;102465.63;10449714;28;20041;-66
2023/02/03 03:08:49;;;;;;;11.30;3.20;;;;;;;9.20;100.00;102440.47;10447526;28;20033;-67
2023/02/03 03:13:52;;;;;;;4.22;1.75;;;;;;;9.20;100.00;102452.13;10415062;28;20069;-67
2023/02/03 03:18:58;;;;;;;6.88;2.03;;;;;;;9.15;100.00;102424.69;10415393;28;20449;-67
2023/02/03 03:24:00;;;;;;;9.35;3.25;;;;;;;9.10;100.00;102437.81;10432138;28;20048;-67
2023/02/03 03:29:17;;;;;;;3.28;2.03;;;;;;;9.16;100.00;102453.44;10432431;28;20042;-66
2023/02/03 03:34:17;;;;;;;4.60;2.30;;;;;;;9.07;100.00;102428.16;10431696;28;20477;-67
2023/02/03 03:39:26;;;;;;;3.83;1.88;;;;;;;9.11;100.00;102460.28;10448327;28;20056;-66
2023/02/03 03:44:35;;;;;;;8.45;3.50;;;;;;;9.04;100.00;102450.06;10417365;28;20033;-66
2023/02/03 03:49:35;;;;;;;9.77;3.13;;;;;;;8.99;100.00;102457.75;10414420;28;20041;-66
2023/02/03 03:54:35;;;;;;;5.90;2.70;;;;;;;9.03;100.00;102461.00;10448166;28;20512;-66
2023/02/03 03:59:36;;;;;;;3.67;2.13;;;;;;;9.05;100.00;102467.97;10430417;28;20129;-66
2023/02/03 04:04:37;;;;;;;4.30;2.55;;;;;;;9.06;100.00;102448.06;10447291;28;20038;-66
2023/02/03 04:09:38;;;;;;;5.03;2.17;;;;;;;9.01;100.00;102455.78;10415597;28;20045;-66
2023/02/03 04:14:39;;;;;;;5.88;2.85;;;;;;;9.04;100.00;102468.97;10413807;28;20099;-67
2023/02/03 04:19:40;;;;;;;4.95;2.90;;;;;;;9.10;100.00;102454.03;10423054;28;20033;-66
2023/02/03 04:24:40;;;;;;;3.40;2.10;;;;;;;9.09;100.00;102479.31;10421434;28;20044;-66
2023/02/03 04:29:40;;;;;;;15.60;3.30;;;;;;;9.10;100.00;102470.25;10423617;28;20081;-67
2023/02/03 04:34:41;;;;;;;9.05;2.38;;;;;;;9.11;100.00;102471.09;10421584;28;20040;-66
2023/02/03 04:39:41;;;;;;;9.18;3.13;;;;;;;9.02;100.00;102462.00;10422568;28;20485;-66
2023/02/03 04:44:41;;;;;;;8.98;3.17;;;;;;;9.00;100.00;102464.88;10423029;28;20038;-66
2023/02/03 04:49:42;;;;;;;4.03;2.92;;;;;;;8.96;100.00;102462.59;10422254;28;20030;-66
2023/02/03 04:54:42;;;;;;;12.45;2.67;;;;;;;8.87;100.00;102474.31;10422001;28;20414;-67
2023/02/03 04:59:43;;;;;;;9.85;3.00;;;;;;;8.85;100.00;102485.28;10421778;28;20102;-67
2023/02/03 05:04:43;;;;;;;8.40;2.00;;;;;;;8.95;100.00;102486.09;10420146;28;20041;-67
2023/02/03 05:09:44;;;;;;;5.45;2.55;;;;;;;8.99;100.00;102470.41;10421387;28;20038;-66
2023/02/03 05:14:44;;;;;;;5.55;2.92;;;;;;;8.96;100.00;102468.84;10421024;28;20037;-66
2023/02/03 05:19:44;;;;;;;10.45;3.72;;;;;;;8.97;100.00;102481.38;10420957;28;20033;-66
2023/02/03 05:24:45;;;;;;;7.60;2.88;;;;;;;9.00;100.00;102475.69;10452890;28;20540;-67
2023/02/03 05:29:45;;;;;;;10.32;3.28;;;;;;;8.82;100.00;102462.09;10434789;28;20057;-66
2023/02/03 05:34:46;;;;;;;9.57;2.97;;;;;;;8.81;100.00;102471.22;10418430;28;20073;-67
2023/02/03 05:39:46;;;;;;;11.85;4.30;;;;;;;8.68;100.00;102467.09;10417004;28;20045;-67
2023/02/03 05:44:46;;;;;;;9.52;3.67;;;;;;;8.77;100.00;102458.13;10433651;28;20029;-67
2023/02/03 05:49:47;;;;;;;16.45;4.03;;;;;;;8.84;100.00;102470.06;10417962;28;20034;-67
2023/02/03 05:54:47;;;;;;;10.77;2.72;;;;;;;8.90;100.00;102460.50;10449178;28;20095;-66
2023/02/03 05:59:48;;;;;;;8.95;4.30;;;;;;;8.90;100.00;102474.84;10417989;28;20041;-66
2023/02/03 06:04:49;;;;;;;17.40;4.43;;;;;;;8.79;100.00;102478.59;10418526;28;20079;-66
2023/02/03 06:09:49;;;;;;;9.40;3.17;;;;;;;8.67;100.00;102487.03;10416026;28;20045;-67
2023/02/03 06:14:49;;;;;;;15.10;2.97;;;;;;;8.61;100.00;102469.53;10417172;28;20060;-67
2023/02/03 06:19:50;;;;;;;14.38;3.50;;;;;;;8.52;100.00;102474.00;10416484;28;20098;-66
2023/02/03 06:24:50;;;;;;;6.40;3.10;;;;;;;8.43;100.00;102458.66;10360614;28;20073;-66
2023/02/03 06:29:51;;;;;;;9.55;3.42;;;;;;;8.40;100.00;102468.91;10379943;28;1086386;-67
2023/02/03 06:34:51;;;;;;;9.77;2.78;;;;;;;8.39;100.00;102470.72;10417856;28;20496;-66
2023/02/03 06:39:51;;;;;;;10.20;2.85;;;;;;;8.52;100.00;102492.91;10416765;28;20393;-66
2023/02/03 06:44:52;;;;;;;11.68;4.03;;;;;;;8.68;100.00;102486.00;10418204;28;20037;-66
2023/02/03 06:49:52;;;;;;;9.60;4.05;;;;;;;8.74;100.00;102488.13;10417217;28;20053;-67
2023/02/03 06:54:53;;;;;;;11.40;4.03;;;;;;;8.79;100.00;102508.31;10449219;28;20047;-66
2023/02/03 06:59:53;;;;;;;7.00;2.40;;;;;;;8.84;100.00;102508.75;10416622;28;20030;-66
2023/02/03 07:04:54;;;;;;;9.52;3.35;;;;;;;8.87;100.00;102513.00;10415087;28;20401;-66
2023/02/03 07:09:54;;;;;;;5.72;2.83;;;;;;;8.91;100.00;102540.56;10416014;28;20044;-67
2023/02/03 07:14:55;;;;;;;15.60;4.68;;;;;;;8.92;100.00;102521.50;10415474;28;20061;-67
2023/02/03 07:19:55;;;;;;;8.82;3.13;;;;;;;8.98;100.00;102545.22;10415429;28;20037;-66
2023/02/03 07:24:55;;;;;;;19.50;4.18;;;;;;;9.01;100.00;102544.09;10415817;28;20116;-66
2023/02/03 07:29:56;;;;;;;20.90;4.25;;;;;;;8.99;100.00;102549.63;10414327;28;20146;-65
2023/02/03 07:34:56;;;;;;;8.80;3.47;;;;;;;9.00;100.00;102543.25;10415556;28;20045;-68
2023/02/03 07:39:57;;;;;;;17.45;4.10;;;;;;;9.06;100.00;102541.78;10447195;28;20592;-67
2023/02/03 07:44:57;;;;;;;11.10;4.35;;;;;;;9.04;100.00;102528.44;10414981;28;20029;-66
2023/02/03 07:49:57;;;;;;;16.92;3.97;;;;;;;9.05;100.00;102537.38;10415053;28;20196;-66
2023/02/03 07:54:58;;;;;;;11.02;4.95;;;;;;;9.07;100.00;102551.63;10416682;28;20488;-66
2023/02/03 07:59:58;;;;;;;17.08;4.10;;;;;;;9.11;100.00;102557.56;10414255;28;20037;-66
2023/02/03 08:04:58;;;;;;;7.20;3.03;;;;;;;9.19;100.00;102544.16;10413568;28;20061;-66
2023/02/03 08:09:59;;;;;;;9.10;3.97;;;;;;;9.24;100.00;102571.59;10413280;28;20056;-66
2023/02/03 08:14:59;;;;;;;15.77;4.15;;;;;;;9.24;100.00;102585.13;10414692;28;20202;-67
2023/02/03 08:20:00;;;;;;;11.43;4.75;;;;;;;9.27;100.00;102568.59;10413938;28;20030;-66
2023/02/03 08:25:00;;;;;;;11.00;3.60;;;;;;;9.31;100.00;102592.47;10414093;28;20381;-66
2023/02/03 08:30:01;;;;;;;9.95;2.83;;;;;;;9.29;100.00;102589.09;10415272;28;20056;-67
2023/02/03 08:35:01;;;;;;;9.52;4.00;;;;;;;9.22;100.00;102590.69;10445758;28;20115;-66
2023/02/03 08:40:01;;;;;;;8.68;4.00;;;;;;;9.20;100.00;102581.03;10415116;28;20120;-67
2023/02/03 08:45:02;;;;;;;8.88;2.85;;;;;;;9.18;100.00;102591.97;10414420;28;20397;-67
2023/02/03 08:50:04;;;;;;;7.25;3.47;;;;;;;9.20;100.00;102589.13;10416133;28;20038;-70
2023/02/03 08:55:05;;;;;;;10.82;4.53;;;;;;;9.30;100.00;102614.28;10446269;28;20052;-66
2023/02/03 09:00:06;;;;;;;14.50;3.80;;;;;;;9.39;100.00;102599.88;10413238;28;20103;-66
2023/02/03 09:05:07;;;;;;;17.05;4.95;;;;;;;9.51;100.00;102612.22;10420051;28;20120;-67
2023/02/03 09:10:07;;;;;;;13.32;4.00;;;;;;;9.58;100.00;102619.72;10453055;28;20044;-67
2023/02/03 09:15:08;;;;;;;12.63;4.55;;;;;;;9.47;100.00;102618.88;10452870;28;20037;-65
2023/02/03 09:20:12;;;;;;;15.10;4.88;;;;;;;9.50;100.00;102637.53;10435798;28;20139;-67
2023/02/03 09:25:13;;;;;;;12.18;3.60;;;;;;;9.57;100.00;102651.31;10420309;28;20037;-67
2023/02/03 09:30:13;;;;;;;14.45;3.35;;;;;;;9.66;100.00;102633.34;10452215;28;20128;-66
2023/02/03 09:35:14;;;;;;;14.68;4.10;;;;;;;9.76;100.00;102662.06;10419488;28;20033;-66
2023/02/03 09:40:23;;;;;;;11.95;4.43;;;;;;;9.87;100.00;102646.66;10420102;28;20057;-67
2023/02/03 09:45:25;;;;;;;15.90;3.85;;;;;;;10.12;100.00;102661.34;10437148;28;20095;-67
2023/02/03 09:50:28;;;;;;;14.82;3.08;;;;;;;10.25;100.00;102650.97;10420575;28;20021;-66
2023/02/03 09:55:43;;;;;;;17.58;4.18;;;;;;;10.28;100.00;102672.38;10435407;28;20038;-66
2023/02/03 10:00:47;;;;;;;17.48;4.43;;;;;;;10.44;100.00;102680.69;10419751;28;20347;-67
2023/02/03 10:05:56;;;;;;;9.18;4.32;;;;;;;10.56;100.00;102686.72;10417923;28;20115;-66
2023/02/03 10:11:15;;;;;;;7.95;1.63;;;;;;;10.66;100.00;102692.91;10419186;28;20517;-67
2023/02/03 10:16:28;;;;;;;13.75;3.97;;;;;;;10.90;100.00;102688.72;10418113;28;20103;-66
2023/02/03 10:21:43;;;;;;;9.32;2.72;;;;;;;10.98;100.00;102701.53;10451593;28;20043;-66
2023/02/03 10:26:43;;;;;;;17.42;3.25;;;;;;;11.07;100.00;102703.25;10418398;28;20026;-66
2023/02/03 10:31:47;;;;;;;10.43;3.53;;;;;;;11.07;100.00;102704.16;10418187;28;20038;-67
2023/02/03 10:36:53;;;;;;;7.05;2.45;;;;;;;11.14;100.00;102690.81;10417584;28;20378;-67
2023/02/03 10:41:54;;;;;;;14.85;2.80;;;;;;;11.28;100.00;102709.22;10449595;28;20095;-66
2023/02/03 10:46:55;;;;;;;8.00;4.20;;;;;;;11.24;100.00;102734.94;10416572;28;20405;-67
2023/02/03 10:51:58;;;;;;;12.30;4.80;;;;;;;11.22;100.00;102733.41;10433110;28;20068;-66
2023/02/03 10:57:11;;;;;;;14.10;3.72;;;;;;;11.12;100.00;102747.03;10432055;28;20113;-66
2023/02/03 11:02:27;;;;;;;10.38;3.88;;;;;;;11.23;100.00;102754.94;10399010;28;20026;-66
2023/02/03 11:07:27;;;;;;;9.73;2.78;;;;;;;11.21;100.00;102742.56;10417406;28;20065;-66
2023/02/03 11:12:28;;;;;;;4.10;2.92;;;;;;;11.17;100.00;102756.41;10431833;28;20061;-67
2023/02/03 11:17:28;;;;;;;6.97;3.92;;;;;;;11.30;100.00;102734.31;10416272;28;20041;-66
2023/02/03 11:22:36;;;;;;;2.45;2.25;;;;;;;11.20;100.00;102735.41;10431408;28;20060;-66
2023/02/03 11:27:36;;;;;;;16.13;2.75;;;;;;;11.16;100.00;102751.97;10416485;28;20044;-66
2023/02/03 11:32:40;;;;;;;6.25;3.13;;;;;;;11.16;100.00;102759.28;10447364;28;20021;-66
2023/02/03 11:37:41;;;;;;;11.23;4.50;;;;;;;11.30;100.00;102753.31;10447111;28;20036;-66
2023/02/03 11:42:57;;;;;;;11.10;2.55;;;;;;;11.41;100.00;102736.75;10415047;28;20029;-66
2023/02/03 11:48:10;;;;;;;10.15;3.35;;;;;;;11.44;100.00;102729.34;10415687;28;20030;-67
2023/02/03 11:53:30;;;;;;;7.30;3.88;;;;;;;11.34;100.00;102730.28;10414575;28;20037;-65
2023/02/03 11:58:36;;;;;;;7.47;3.97;;;;;;;11.28;100.00;102741.75;10414121;28;20025;-66
2023/02/03 12:03:50;;;;;;;7.72;2.33;;;;;;;11.15;100.00;102742.16;10415213;28;20021;-66
2023/02/03 12:09:05;;;;;;;7.35;2.58;;;;;;;11.15;100.00;102741.31;10414017;28;20030;-66
2023/02/03 12:14:18;;;;;;;3.30;2.53;;;;;;;11.10;100.00;102744.50;10447033;28;20040;-66
2023/02/03 12:19:30;;;;;;;5.55;2.20;;;;;;;11.07;100.00;102735.81;10414561;28;20030;-66
2023/02/03 12:24:54;;;;;;;5.40;2.85;;;;;;;11.08;100.00;102737.53;10415047;28;20354;-66
2023/02/03 12:30:24;;;;;;;11.35;3.20;;;;;;;11.06;100.00;102743.09;10441718;28;20053;-66
2023/02/03 12:35:33;;;;;;;10.43;3.38;;;;;;;11.06;100.00;102753.09;10416424;28;20045;-66
2023/02/03 12:40:55;;;;;;;7.93;2.55;;;;;;;11.16;100.00;102757.41;10436634;28;20384;-66
2023/02/03 12:46:08;;;;;;;9.77;2.53;;;;;;;11.08;100.00;102751.94;10422606;28;20033;-66
2023/02/03 12:51:11;;;;;;;10.85;2.70;;;;;;;11.06;100.00;102751.22;10453068;28;20041;-66
2023/02/03 12:56:14;;;;;;;8.50;3.95;;;;;;;11.20;100.00;102757.09;10420330;28;20396;-67
2023/02/03 13:01:14;;;;;;;5.97;2.40;;;;;;;11.09;100.00;102759.03;10421124;28;20385;-66
2023/02/03 13:06:19;;;;;;;11.02;3.63;;;;;;;11.07;100.00;102765.63;10421020;28;20033;-66
2023/02/03 13:11:27;;;;;;;4.72;2.92;;;;;;;11.03;100.00;102761.53;10437358;28;20037;-66
2023/02/03 13:16:32;;;;;;;9.68;3.55;;;;;;;11.05;100.00;102757.66;10435683;28;20083;-65
2023/02/03 13:21:32;;;;;;;9.57;3.10;;;;;;;11.03;100.00;102765.09;10435165;28;20068;-66
2023/02/03 13:26:47;;;;;;;13.40;3.17;;;;;;;10.95;100.00;102781.28;10419412;28;20402;-67
2023/02/03 13:32:08;;;;;;;3.90;2.42;;;;;;;10.82;100.00;102780.81;10420876;28;20109;-67
2023/02/03 13:37:40;;;;;;;6.85;3.78;;;;;;;10.69;100.00;102786.59;10432827;28;20043;-66
2023/02/03 13:42:51;;;;;;;6.55;3.50;;;;;;;10.70;100.00;102789.16;10451220;28;20034;-67
2023/02/03 13:47:54;;;;;;;13.95;2.35;;;;;;;10.67;100.00;102788.59;10420324;28;20064;-66
2023/02/03 13:52:59;;;;;;;8.60;3.10;;;;;;;10.76;100.00;102787.69;10418872;28;20457;-66
2023/02/03 13:57:59;;;;;;;8.77;4.47;;;;;;;10.71;100.00;102800.84;10418910;28;20037;-67
2023/02/03 14:02:59;;;;;;;17.13;4.80;;;;;;;10.81;100.00;102793.50;10417644;28;20456;-66
2023/02/03 14:08:24;;;;;;;15.38;3.22;;;;;;;10.87;100.00;102808.28;10418304;28;20092;-65
2023/02/03 14:13:24;;;;;;;7.15;2.92;;;;;;;10.86;100.00;102815.56;10435476;28;20038;-67
2023/02/03 14:18:43;;;;;;;9.73;3.50;;;;;;;10.96;100.00;102823.66;10418794;28;20421;-66
2023/02/03 14:23:54;;;;;;;9.35;3.40;;;;;;;10.80;100.00;102815.34;10400545;28;20433;-66
2023/02/03 14:28:54;;;;;;;10.43;4.03;;;;;;;10.80;100.00;102815.34;10417518;28;20045;-66
2023/02/03 14:34:13;;;;;;;4.93;2.63;;;;;;;10.81;100.00;102836.00;10418926;28;20056;-66
2023/02/03 14:39:16;;;;;;;11.00;3.38;;;;;;;10.74;100.00;102852.00;10418290;28;20331;-66
2023/02/03 14:44:54;;;;;;;8.55;3.22;;;;;;;10.68;100.00;102847.19;10416609;28;20144;-66
2023/02/03 14:50:16;;;;;;;6.35;3.58;;;;;;;10.54;100.00;102842.28;10416386;28;20505;-65
2023/02/03 14:55:29;;;;;;;5.45;3.92;;;;;;;10.51;100.00;102850.72;10417363;28;20025;-65
2023/02/03 15:00:33;;;;;;;18.20;4.75;;;;;;;10.49;100.00;102848.13;10414334;28;20110;-66
2023/02/03 15:05:36;;;;;;;10.20;4.95;;;;;;;10.45;100.00;102858.41;10448850;28;20037;-66
2023/02/03 15:10:41;;;;;;;8.82;3.90;;;;;;;10.43;100.00;102849.63;10414467;28;20454;-66
2023/02/03 15:15:42;;;;;;;2.97;2.30;;;;;;;10.34;100.00;102864.03;10447166;28;20033;-65
2023/02/03 15:20:45;;;;;;;14.20;3.17;;;;;;;10.31;100.00;102856.22;10415526;28;20386;-66
2023/02/03 15:25:55;;;;;;;14.75;4.57;;;;;;;10.31;100.00;102872.47;10448012;28;20108;-66
2023/02/03 15:31:08;;;;;;;12.38;3.47;;;;;;;10.23;100.00;102883.13;10417373;28;20092;-66
2023/02/03 15:36:14;;;;;;;7.25;3.28;;;;;;;10.21;100.00;102883.28;10415215;28;20044;-66
2023/02/03 15:41:19;;;;;;;14.93;4.60;;;;;;;10.19;100.00;102879.88;10415937;28;20029;-66
2023/02/03 15:46:37;;;;;;;8.57;2.75;;;;;;;10.16;100.00;102895.53;10429840;28;20635;-66
2023/02/03 15:51:43;;;;;;;22.38;5.00;;;;;;;10.11;100.00;102892.41;10448178;28;20037;-66
2023/02/03 15:56:53;;;;;;;8.07;3.42;;;;;;;10.01;100.00;102884.31;10446535;28;20156;-66
2023/02/03 16:01:54;;;;;;;17.63;5.40;;;;;;;10.01;100.00;102897.84;10445262;28;20117;-65
2023/02/03 16:06:54;;;;;;;13.32;4.00;;;;;;;9.97;100.00;102894.56;10413244;28;20045;-66
2023/02/03 16:12:37;;;;;;;10.38;4.38;;;;;;;9.91;100.00;102903.28;10433343;28;20033;-66
2023/02/03 16:17:38;;;;;;;10.35;4.32;;;;;;;9.84;100.00;102904.84;10443592;28;20357;-66
2023/02/03 16:23:00;;;;;;;13.73;3.03;;;;;;;9.83;100.00;102904.97;10423380;28;20045;-67
2023/02/03 16:54:57;;;;;;;11.38;3.22;;;;;;;9.50;100.00;102942.28;10421188;28;20080;-66
2023/02/03 16:59:58;;;;;;;17.00;4.90;;;;;;;9.48;100.00;102958.66;10453678;28;20416;-66
2023/02/03 17:04:58;;;;;;;12.10;4.40;;;;;;;9.49;100.00;102970.31;10421045;28;20038;-65
2023/02/03 17:09:59;;;;;;;15.02;5.10;;;;;;;9.46;100.00;102957.09;10421015;28;20033;-66
2023/02/03 17:14:59;;;;;;;14.23;5.00;;;;;;;9.47;100.00;102965.03;10452962;28;20034;-67
2023/02/03 17:20:00;;;;;;;8.05;5.15;;;;;;;9.47;100.00;102983.97;10421644;28;20469;-66
2023/02/03 17:25:00;;;;;;;9.52;5.28;;;;;;;9.45;100.00;102985.97;10402264;28;20045;-66
2023/02/03 17:30:01;;;;;;;7.65;4.00;;;;;;;9.43;100.00;102987.97;10420530;28;20489;-67
2023/02/03 17:35:01;;;;;;;15.48;4.13;;;;;;;9.36;100.00;102978.69;10420470;28;20038;-66
2023/02/03 17:40:02;;;;;;;18.65;6.45;;;;;;;9.44;100.00;102999.63;10420176;28;20116;-66
2023/02/03 17:45:03;;;;;;;11.65;5.15;;;;;;;9.46;100.00;103017.44;10452413;28;20037;-66
2023/02/03 17:50:03;;;;;;;12.23;5.57;;;;;;;9.49;100.00;103027.97;10419079;28;20044;-66
2023/02/03 17:55:04;;;;;;;14.68;4.95;;;;;;;9.51;100.00;103034.13;10419703;28;20037;-65
2023/02/03 18:00:05;;;;;;;11.10;5.70;;;;;;;9.51;100.00;103046.78;10418960;28;20084;-66
2023/02/03 18:05:06;;;;;;;12.02;4.85;;;;;;;9.50;100.00;103053.16;10418975;28;20033;-66
2023/02/03 18:10:07;;;;;;;12.25;4.45;;;;;;;9.46;100.00;103060.69;10418119;28;20041;-66
2023/02/03 18:15:08;;;;;;;8.90;3.65;;;;;;;9.46;100.00;103076.06;10420869;28;20029;-67
2023/02/03 18:20:09;;;;;;;18.25;5.35;;;;;;;9.46;100.00;103082.34;10417332;28;20049;-67
2023/02/03 18:25:10;;;;;;;24.13;5.90;;;;;;;9.41;100.00;103067.50;10418129;28;20434;-66
2023/02/03 18:30:11;;;;;;;13.77;4.63;;;;;;;9.42;100.00;103080.91;10416991;28;20050;-66
2023/02/03 18:35:15;;;;;;;13.30;5.47;;;;;;;9.41;100.00;103079.22;10417160;28;20052;-66
2023/02/03 18:40:16;;;;;;;15.07;5.47;;;;;;;9.42;100.00;103090.88;10417874;28;20033;-66
2023/02/03 18:45:16;;;;;;;17.05;5.75;;;;;;;9.42;100.00;103102.53;10418622;28;20037;-67
2023/02/03 18:50:17;;;;;;;11.20;5.57;;;;;;;9.40;100.00;103109.91;10432655;28;20158;-67
2023/02/03 18:55:17;;;;;;;18.30;6.03;;;;;;;9.39;100.00;103108.22;10417555;28;20393;-66
2023/02/03 19:00:18;;;;;;;14.50;5.32;;;;;;;9.41;100.00;103110.78;10416126;28;20080;-66
2023/02/03 19:05:19;;;;;;;7.30;4.70;;;;;;;9.39;100.00;103113.63;10399167;28;20064;-66
2023/02/03 19:10:19;;;;;;;19.90;6.55;;;;;;;9.40;100.00;103117.19;10415302;28;20386;-65
2023/02/03 19:15:19;;;;;;;20.50;5.82;;;;;;;9.39;100.00;103132.56;10416404;28;20061;-66
2023/02/03 19:20:20;;;;;;;29.50;6.43;;;;;;;9.37;100.00;103139.94;10416086;28;20034;-67
2023/02/03 19:25:20;;;;;;;13.95;4.68;;;;;;;9.40;100.00;103150.47;10417328;28;20037;-66
2023/02/03 19:30:21;;;;;;;18.48;6.72;;;;;;;9.39;100.00;103154.19;10415460;28;20152;-66
2023/02/03 19:35:21;;;;;;;13.80;4.97;;;;;;;9.38;100.00;103154.31;10416046;28;20057;-66
2023/02/03 19:40:22;;;;;;;25.85;7.38;;;;;;;9.38;100.00;103167.81;10415324;28;20121;-67
2023/02/03 19:45:22;;;;;;;11.32;5.47;;;;;;;9.33;100.00;103181.75;10415166;28;20069;-67
2023/02/03 19:50:22;;;;;;;17.17;6.07;;;;;;;9.26;100.00;103194.97;10414956;28;20030;-66
2023/02/03 19:55:29;;;;;;;32.65;5.95;;;;;;;9.21;100.00;103201.75;10414198;28;20048;-66
2023/02/03 20:00:29;;;;;;;11.00;5.13;;;;;;;9.13;100.00;103197.00;10416786;28;20041;-66
2023/02/03 20:05:30;;;;;;;9.20;6.10;;;;;;;9.04;100.00;103195.94;10414653;28;20081;-65
2023/02/03 20:10:31;;;;;;;11.68;4.75;;;;;;;8.94;100.00;103207.69;10447621;28;20136;-65
2023/02/03 20:15:31;;;;;;;16.10;6.28;;;;;;;8.80;100.00;103204.28;10447271;28;20041;-65
2023/02/03 20:20:32;;;;;;;17.73;5.18;;;;;;;8.73;100.00;103213.03;10414936;28;20034;-66
2023/02/03 20:25:32;;;;;;;29.50;6.43;;;;;;;8.68;100.00;103220.66;10397198;28;20033;-66
2023/02/03 20:30:33;;;;;;;12.25;5.20;;;;;;;8.56;100.00;103218.00;10415666;28;20081;-64
2023/02/03 20:35:34;;;;;;;13.02;5.32;;;;;;;8.51;100.00;103213.97;10414023;28;20172;-66
2023/02/03 20:40:34;;;;;;;15.90;6.82;;;;;;;8.50;100.00;103225.75;10415658;28;20033;-65
2023/02/03 20:45:36;;;;;;;22.50;6.13;;;;;;;8.40;100.00;103241.88;10414473;28;20041;-65
2023/02/03 20:50:37;;;;;;;16.17;6.50;;;;;;;8.28;100.00;103234.72;10414061;28;20030;-65
2023/02/03 20:55:37;;;;;;;20.52;5.10;;;;;;;8.19;100.00;103241.72;10412496;28;20041;-65
2023/02/03 21:00:38;;;;;;;27.13;7.72;;;;;;;8.08;100.00;103236.34;10419970;28;20034;-65
2023/02/03 21:05:40;;;;;;;24.40;6.93;;;;;;;8.01;100.00;103227.91;10422339;28;20073;-65
2023/02/03 21:10:41;;;;;;;23.40;6.20;;;;;;;7.93;100.00;103231.19;10436957;28;20029;-64
2023/02/03 21:15:41;;;;;;;27.42;7.03;;;;;;;7.91;100.00;103232.28;10422097;28;20029;-64
2023/02/03 21:20:42;;;;;;;12.40;5.05;;;;;;;7.87;100.00;103226.28;10420084;28;20099;-64
2023/02/03 21:25:42;;;;;;;25.23;7.80;;;;;;;7.79;100.00;103236.00;10453651;28;20029;-64
2023/02/03 21:30:43;;;;;;;44.15;7.25;;;;;;;7.74;100.00;103228.25;10422857;28;20393;-65
2023/02/03 21:35:43;;;;;;;22.25;5.43;;;;;;;7.73;100.00;103237.34;10421886;28;20064;-65
2023/02/03 21:40:44;;;;;;;27.85;5.35;;;;;;;7.74;100.00;103238.19;10419253;28;20065;-65
2023/02/03 21:45:45;;;;;;;38.75;6.80;;;;;;;7.74;100.00;103241.75;10420295;28;20041;-64
2023/02/03 21:50:46;;;;;;;32.40;6.72;;;;;;;7.76;100.00;103244.34;10420050;28;20040;-68
2023/02/03 21:55:46;;;;;;;18.00;7.18;;;;;;;7.76;100.00;103244.34;10420040;28;20037;-66
2023/02/03 22:00:47;;;;;;;20.70;5.13;;;;;;;7.77;100.00;103249.59;10420321;28;20424;-62
2023/02/03 22:05:47;;;;;;;21.05;6.60;;;;;;;7.75;100.00;103246.16;10419635;28;20112;-63
2023/02/03 22:10:48;;;;;;;26.30;6.30;;;;;;;7.75;100.00;103246.16;10418088;28;20038;-64
2023/02/03 22:15:49;;;;;;;24.80;6.70;;;;;;;7.75;100.00;103250.69;10419186;28;20183;-65
2023/02/03 22:20:49;;;;;;;16.20;7.00;;;;;;;7.74;100.00;103257.06;10419315;28;20037;-64
2023/02/03 22:25:50;;;;;;;20.17;6.57;;;;;;;7.77;100.00;103275.72;10418810;28;20041;-64
2023/02/03 22:30:50;;;;;;;15.95;5.00;;;;;;;7.77;100.00;103283.81;10450194;28;20057;-65
2023/02/03 22:35:51;;;;;;;19.00;6.97;;;;;;;7.79;100.00;103292.66;10418289;28;20064;-64
2023/02/03 22:40:51;;;;;;;28.25;8.05;;;;;;;7.78;100.00;103301.69;10416917;28;20038;-65
2023/02/03 22:45:52;;;;;;;18.35;7.32;;;;;;;7.79;100.00;103308.81;10418406;28;20109;-64
2023/02/03 22:50:53;;;;;;;13.50;5.47;;;;;;;7.83;100.00;103307.59;10417211;28;20032;-64
2023/02/03 22:55:54;;;;;;;22.95;7.20;;;;;;;7.82;100.00;103308.59;10418140;28;20116;-64
2023/02/03 23:00:54;;;;;;;22.10;7.45;;;;;;;7.82;100.00;103313.97;10450333;28;20045;-64
2023/02/03 23:05:55;;;;;;;27.55;8.13;;;;;;;7.83;100.00;103310.28;10418360;28;20037;-64
2023/02/03 23:10:55;;;;;;;27.60;7.43;;;;;;;7.80;100.00;103313.22;10399419;28;20101;-64
2023/02/03 23:15:56;;;;;;;26.13;7.63;;;;;;;7.80;100.00;103324.88;10415766;28;20412;-64
2023/02/03 23:20:56;;;;;;;29.63;6.70;;;;;;;7.77;100.00;103325.13;10416228;28;20045;-64
2023/02/03 23:25:57;;;;;;;20.90;6.47;;;;;;;7.77;100.00;103332.34;10416237;28;20442;-64